Flight Track Log - Related Links

Times and Time Zones

All times are in EDT time to prevent confusion due to time zone crossing. See the N770PJ flight status page for this flight to view local times or setup timezone preferences in your user account.


Time Position Orientation Groundspeed Altitude Reporting Facility
EDT Latitude Longitude Course Direction KTS MPH feet Rate Location/Type
Sun 08:28:57 PM 29.5247 -98.4636 147° Southeast 152 175 1,600  Level Houston Center
Sun 08:30:02 PM 29.4856 -98.4339 147° Southeast 186 214 4,300 2,268 Climbing Houston Center
Sun 08:31:04 PM 29.4178 -98.4483 191° South 248 285 6,400 2,516 Climbing Houston Center
Sun 08:32:06 PM 29.3361 -98.4814 199° South 293 337 9,500 2,758 Climbing Houston Center
Sun 08:33:08 PM 29.2692 -98.5303 213° Southwest 286 329 12,100 1,984 Climbing Houston Center
Sun 08:34:10 PM 29.1939 -98.5897 215° Southwest 336 387 13,600 2,146 Climbing Houston Center
Sun 08:35:11 PM 29.1033 -98.6394 206° Southwest 335 386 16,500 2,341 Climbing Houston Center
Sun 08:36:13 PM 29.0217 -98.6847 206° Southwest 327 376 18,400 1,839 Climbing Houston Center
Sun 08:37:15 PM 28.9294 -98.7367 206° Southwest 342 394 20,300 1,839 Climbing Houston Center
Sun 08:38:17 PM 28.8444 -98.7856 207° Southwest 341 392 22,200 1,355 Climbing Houston Center
Sun 08:39:19 PM 28.7553 -98.8358 206° Southwest 356 410 23,100 927 Climbing Houston Center
Sun 08:40:20 PM 28.6708 -98.8825 206° Southwest 373 429 24,100 1,512 Climbing Houston Center
Sun 08:41:22 PM 28.5783 -98.9342 206° Southwest 371 427 26,200 1,548 Climbing Houston Center
Sun 08:42:24 PM 28.4733 -98.9911 205° Southwest 351 404 27,300 823 Climbing Houston Center
Sun 08:43:26 PM 28.3792 -99.0453 207° Southwest 371 427 27,900 293 Climbing Houston Center
Sun 08:44:27 PM 28.2806 -99.1008 206° Southwest 391 450 27,900 49 Level Houston Center
Sun 08:45:29 PM 28.1753 -99.1594 206° Southwest 417 480 28,000 97 Climbing Houston Center
Sun 08:46:31 PM 28.0658 -99.2203 206° Southwest 433 498 28,100  Climbing Houston Center
Sun 08:47:32 PM 27.9550 -99.2833 207° Southwest 444 511 28,000 -49 Descending Houston Center
Sun 08:48:34 PM 27.8194 -99.3589 206° Southwest 453 521 28,000 48 Level Houston Center
Sun 08:49:36 PM 27.7069 -99.4214 206° Southwest 455 524 28,100 49 Climbing Houston Center
Sun 08:50:37 PM 27.5936 -99.4836 206° Southwest 456 525 28,100  Level Houston Center
Sun 08:52:00 PM 27.4767 -99.5354 249° West  Level Estimated
Sun 08:59:00 PM 26.9078 -99.7203 197° South  Level FlightAware Approximate
Sun 09:00:00 PM 26.8210 -99.7502 197° South  Level FlightAware Approximate
Sun 09:01:00 PM 26.7341 -99.7800 197° South  Level FlightAware Approximate
Sun 09:02:00 PM 26.6473 -99.8098 197° South  Level FlightAware Approximate
Sun 09:03:00 PM 26.5604 -99.8395 197° South  Level FlightAware Approximate
Sun 09:04:00 PM 26.4736 -99.8692 197° South  Level FlightAware Approximate
Sun 09:05:00 PM 26.3867 -99.8988 197° South  Level FlightAware Approximate
Sun 09:06:00 PM 26.2990 -99.9253 195° South  Level FlightAware Approximate
Sun 09:07:00 PM 26.2114 -99.9518 197° South  Level FlightAware Approximate
Sun 09:08:00 PM 26.1244 -99.9808 197° South  Level FlightAware Approximate
Sun 09:09:00 PM 26.0374 -100.0098 197° South  Level FlightAware Approximate
Sun 09:10:00 PM 25.9498 -100.0367 195° South  Level FlightAware Approximate
Sun 09:11:00 PM 25.8621 -100.0630 195° South  Level FlightAware Approximate
Sun 09:12:00 PM 25.7764 -100.0961 200° South  Level FlightAware Approximate
Sun 09:13:00 PM 25.8177 -100.1687 299° West  Level FlightAware Approximate
Sun 09:14:00 PM 25.8656 -100.2372 318° Northwest  Level Estimated
Sun 09:15:00 PM 25.8656 -100.2372 318° Northwest  Level Estimated
Sun 09:16:00 PM 25.8656 -100.2372 318° Northwest  Level Estimated
Sun 09:17:00 PM 25.8656 -100.2372 318° Northwest  Level Estimated
Sun 09:18:00 PM 25.8656 -100.2372 318° Northwest  Level Estimated
Sun 09:19:00 PM 25.8656 -100.2372 318° Northwest  Level Estimated
Sun 09:20:00 PM 25.8656 -100.2372 318° Northwest  Level Estimated
Sun 09:21:00 PM 25.8656 -100.2372 318° Northwest  Level Estimated
Sun 09:22:00 PM 25.8656 -100.2372 318° Northwest  Level Estimated
Sun 09:23:00 PM 25.8656 -100.2372 318° Northwest  Level Estimated
Sun 09:24:00 PM 25.8656 -100.2372 318° Northwest  Level Estimated
Sun 09:25:00 PM 25.8656 -100.2372 318° Northwest  Level Estimated
Sun 09:26:00 PM 25.8656 -100.2372 318° Northwest  Level Estimated
Sun 09:27:00 PM 25.8656 -100.2372 318° Northwest  Level Estimated
Sun 09:28:00 PM 25.8656 -100.2372 318° Northwest  Level Estimated
Sun 09:29:00 PM 25.8656 -100.2372 318° Northwest  Level Estimated
Sun 09:30:00 PM 25.8656 -100.2372 318° Northwest  Level Estimated
Sun 09:31:00 PM 25.8656 -100.2372 318° Northwest  Level Estimated

Login

Don't have an account? Register now (free) for customized features, flight alerts, and more!